Time;durP1;ratioP1;P1;durP2;ratioP2;P2;SDS_P1;SDS_P2;PMS_P1;PMS_P2;Temp;Humidity;BMP_temperature;BMP_pressure;BME280_temperature;BME280_humidity;BME280_pressure;Samples;Min_cycle;Max_cycle;Signal;HPM_P1;HPM_P2
2021/05/17 00:01:12;;;;;;;0.83;0.60;;;13.30;99.90;;;;;;5074727;28;20668;-63
2021/05/17 00:03:42;;;;;;;1.00;0.70;;;13.30;99.90;;;;;;5075138;28;20201;-63
2021/05/17 00:06:09;;;;;;;1.37;0.80;;;13.30;99.90;;;;;;5074818;28;20215;-64
2021/05/17 00:08:36;;;;;;;1.90;0.60;;;13.40;99.90;;;;;;5074601;28;20230;-65
2021/05/17 00:11:03;;;;;;;1.10;0.43;;;13.30;99.90;;;;;;5074500;28;20239;-63
2021/05/17 00:13:29;;;;;;;1.90;0.60;;;13.40;99.90;;;;;;5074196;28;20437;-64
2021/05/17 00:15:56;;;;;;;1.33;0.60;;;13.40;99.90;;;;;;5074871;28;20266;-64
2021/05/17 00:18:22;;;;;;;1.17;0.70;;;13.40;99.90;;;;;;5074392;28;20614;-64
2021/05/17 00:20:50;;;;;;;0.87;0.57;;;13.50;99.90;;;;;;5074618;28;20204;-63
2021/05/17 00:23:16;;;;;;;1.13;0.47;;;13.50;99.90;;;;;;5074504;28;20201;-64
2021/05/17 00:25:43;;;;;;;1.23;0.60;;;13.40;99.90;;;;;;5074601;28;20274;-62
2021/05/17 00:28:11;;;;;;;2.33;0.90;;;13.40;99.90;;;;;;5074460;28;20205;-63
2021/05/17 00:30:38;;;;;;;2.20;0.83;;;13.30;99.90;;;;;;5074791;28;20201;-63
2021/05/17 00:33:05;;;;;;;2.20;1.10;;;13.40;99.90;;;;;;5074572;28;20588;-62
2021/05/17 00:35:31;;;;;;;1.30;0.43;;;13.40;99.90;;;;;;5074056;28;20240;-62
2021/05/17 00:37:58;;;;;;;1.50;0.60;;;13.50;99.90;;;;;;5074954;28;20208;-63
2021/05/17 00:40:25;;;;;;;1.40;1.00;;;13.50;99.90;;;;;;5075011;28;20266;-63
2021/05/17 00:42:52;;;;;;;1.30;0.60;;;13.50;99.90;;;;;;5074492;28;20680;-63
2021/05/17 00:45:22;;;;;;;1.47;0.50;;;13.40;99.90;;;;;;5074231;28;20600;-64
2021/05/17 00:47:50;;;;;;;2.37;0.50;;;13.40;99.90;;;;;;5074317;28;20237;-64
2021/05/17 00:50:19;;;;;;;2.40;0.87;;;13.20;99.90;;;;;;5074480;28;20644;-63
2021/05/17 00:52:46;;;;;;;2.93;0.70;;;13.30;99.90;;;;;;5073637;28;20213;-64
2021/05/17 00:55:14;;;;;;;1.10;0.57;;;13.30;99.90;;;;;;5073501;28;20220;-63
2021/05/17 00:57:40;;;;;;;1.33;0.50;;;13.30;99.90;;;;;;5074007;28;20220;-63
2021/05/17 01:00:08;;;;;;;1.27;0.60;;;13.30;99.90;;;;;;5073914;28;20197;-63
2021/05/17 01:02:35;;;;;;;1.10;0.60;;;13.40;99.90;;;;;;5073795;28;20591;-63
2021/05/17 01:05:02;;;;;;;1.60;0.50;;;13.30;99.90;;;;;;5073293;28;20224;-63
2021/05/17 01:07:30;;;;;;;1.27;0.60;;;13.30;99.90;;;;;;5073071;28;20209;-65
2021/05/17 01:09:58;;;;;;;1.80;0.87;;;13.40;99.90;;;;;;5073180;28;20212;-64
2021/05/17 01:12:25;;;;;;;1.70;0.70;;;13.40;99.90;;;;;;5073515;28;20670;-62
2021/05/17 01:14:56;;;;;;;2.33;0.60;;;13.40;99.90;;;;;;5073294;28;20225;-63
2021/05/17 01:17:23;;;;;;;1.37;0.60;;;13.40;99.90;;;;;;5074315;28;20235;-63
2021/05/17 01:20:02;;;;;;;1.80;0.63;;;13.30;99.90;;;;;;5074295;28;20588;-63
2021/05/17 01:22:35;;;;;;;1.27;0.70;;;13.40;99.90;;;;;;5074665;28;20668;-63
2021/05/17 01:25:03;;;;;;;0.60;0.50;;;13.40;99.90;;;;;;5075180;28;20266;-63
2021/05/17 01:27:30;;;;;;;1.70;0.63;;;13.50;99.90;;;;;;5075859;28;20230;-63
2021/05/17 01:29:57;;;;;;;1.87;0.60;;;13.50;99.90;;;;;;5074911;28;20213;-63
2021/05/17 01:32:23;;;;;;;1.47;0.77;;;13.50;99.90;;;;;;5073717;28;20205;-64
2021/05/17 01:34:50;;;;;;;1.50;1.00;;;13.40;99.90;;;;;;5073350;28;20229;-64
2021/05/17 01:37:17;;;;;;;2.93;0.97;;;13.40;99.90;;;;;;5073065;28;20665;-63
2021/05/17 01:39:44;;;;;;;2.00;0.70;;;13.30;99.90;;;;;;5073045;28;20688;-63
2021/05/17 01:42:12;;;;;;;0.97;0.60;;;13.30;99.90;;;;;;5073484;28;20209;-63
2021/05/17 01:44:39;;;;;;;1.23;0.30;;;13.30;99.90;;;;;;5072653;28;20614;-63
2021/05/17 01:47:05;;;;;;;1.23;0.50;;;13.30;99.90;;;;;;5073585;28;20205;-63
2021/05/17 01:49:33;;;;;;;3.37;0.63;;;13.30;99.90;;;;;;5072459;28;20699;-64
2021/05/17 01:52:02;;;;;;;2.13;0.60;;;13.40;99.90;;;;;;5072343;28;20295;-63
2021/05/17 01:54:31;;;;;;;1.43;0.57;;;13.10;99.90;;;;;;5071879;28;20472;-64
2021/05/17 01:56:57;;;;;;;1.10;0.67;;;13.10;99.90;;;;;;5071982;28;20216;-64
2021/05/17 01:59:32;;;;;;;1.73;0.80;;;13.30;99.90;;;;;;5071827;28;20676;-64
2021/05/17 02:01:59;;;;;;;1.03;0.60;;;13.20;99.90;;;;;;5071716;28;20208;-63
2021/05/17 02:04:26;;;;;;;2.50;0.70;;;13.20;99.90;;;;;;5071486;28;20221;-64
2021/05/17 02:06:53;;;;;;;1.20;0.50;;;13.30;99.90;;;;;;5072352;28;20589;-64
2021/05/17 02:09:19;;;;;;;1.07;0.47;;;13.30;99.90;;;;;;5071406;28;20228;-63
2021/05/17 02:11:46;;;;;;;0.90;0.57;;;13.30;99.90;;;;;;5072401;28;20230;-64
2021/05/17 02:14:14;;;;;;;2.47;0.60;;;13.20;99.90;;;;;;5072049;28;20237;-63
2021/05/17 02:16:42;;;;;;;1.83;0.50;;;13.30;99.90;;;;;;5072545;28;20621;-64
2021/05/17 02:19:09;;;;;;;1.03;0.60;;;13.20;99.90;;;;;;5072772;28;20209;-63
2021/05/17 02:21:36;;;;;;;1.30;0.60;;;13.20;99.90;;;;;;5072340;28;20204;-63
2021/05/17 02:24:03;;;;;;;1.70;0.40;;;13.30;99.90;;;;;;5072208;28;20286;-63
2021/05/17 02:26:30;;;;;;;2.07;0.60;;;13.20;99.90;;;;;;5072181;28;20720;-62
2021/05/17 02:28:57;;;;;;;1.07;0.57;;;13.30;99.90;;;;;;5072789;28;20627;-64
2021/05/17 02:31:23;;;;;;;1.37;0.70;;;13.30;99.90;;;;;;5072688;28;20204;-63
2021/05/17 02:33:51;;;;;;;1.73;0.30;;;13.30;99.90;;;;;;5072664;28;20282;-63
2021/05/17 02:36:18;;;;;;;0.50;0.47;;;13.40;99.90;;;;;;5073105;28;20219;-63
2021/05/17 02:38:45;;;;;;;1.17;0.50;;;13.40;99.90;;;;;;5072223;28;20207;-63
2021/05/17 02:41:15;;;;;;;1.30;0.70;;;13.20;99.90;;;;;;5072111;28;20628;-63
2021/05/17 02:43:42;;;;;;;1.07;0.43;;;13.20;99.90;;;;;;5071638;28;20616;-63
2021/05/17 02:46:09;;;;;;;0.93;0.40;;;13.20;99.90;;;;;;5072222;28;20660;-65
2021/05/17 02:48:41;;;;;;;1.17;0.47;;;13.30;99.90;;;;;;5071923;28;20633;-63
2021/05/17 02:51:11;;;;;;;0.53;0.40;;;13.40;99.90;;;;;;5070966;28;20581;-63
2021/05/17 02:54:02;;;;;;;2.20;0.73;;;13.40;99.90;;;;;;5070964;28;20235;-64
2021/05/17 02:56:35;;;;;;;3.03;0.63;;;13.50;99.90;;;;;;5071072;28;20208;-65
2021/05/17 02:59:03;;;;;;;1.30;0.60;;;13.50;99.90;;;;;;5070894;28;20209;-63
2021/05/17 03:01:35;;;;;;;1.60;0.50;;;13.40;99.90;;;;;;5070917;28;20273;-62
2021/05/17 03:04:07;;;;;;;3.43;0.93;;;13.40;99.90;;;;;;5070748;28;20224;-63
2021/05/17 03:06:39;;;;;;;3.00;1.00;;;13.20;99.90;;;;;;5071249;28;20209;-62
2021/05/17 03:09:06;;;;;;;1.77;0.60;;;13.20;99.90;;;;;;5071279;28;20211;-63
2021/05/17 03:11:37;;;;;;;2.47;0.90;;;13.10;99.90;;;;;;5071166;28;20201;-64
2021/05/17 03:14:05;;;;;;;2.27;0.97;;;13.20;99.90;;;;;;5070758;28;20228;-62
2021/05/17 03:16:32;;;;;;;1.33;0.47;;;13.20;99.90;;;;;;5071235;28;20217;-62
2021/05/17 03:18:58;;;;;;;2.73;0.83;;;13.20;99.90;;;;;;5075027;28;20211;-61
2021/05/17 03:21:28;;;;;;;2.33;0.50;;;13.30;99.90;;;;;;5074815;28;20205;-62
2021/05/17 03:23:56;;;;;;;1.10;0.60;;;13.30;99.90;;;;;;5075101;28;20221;-64
2021/05/17 03:26:24;;;;;;;0.97;0.40;;;13.30;99.90;;;;;;5076109;28;20235;-63
2021/05/17 03:28:51;;;;;;;1.50;0.60;;;13.20;99.90;;;;;;5075548;28;20208;-62
2021/05/17 03:31:18;;;;;;;2.23;0.77;;;13.10;99.90;;;;;;5075519;28;20230;-63
2021/05/17 03:33:47;;;;;;;3.40;0.43;;;13.10;99.90;;;;;;5074831;28;20708;-66
2021/05/17 03:36:13;;;;;;;4.50;2.87;;;13.10;99.90;;;;;;5077188;28;20209;-63
2021/05/17 03:38:39;;;;;;;0.80;0.70;;;13.20;99.90;;;;;;5077587;28;20270;-64
2021/05/17 03:41:07;;;;;;;4.53;1.03;;;13.20;99.90;;;;;;5076902;28;20205;-63
2021/05/17 03:43:34;;;;;;;4.17;2.00;;;13.10;99.90;;;;;;5076134;28;20676;-63
2021/05/17 03:46:00;;;;;;;2.10;1.00;;;13.20;99.90;;;;;;5076121;28;20205;-63
2021/05/17 03:48:26;;;;;;;3.47;2.27;;;13.20;99.90;;;;;;5076366;28;20262;-64
2021/05/17 03:50:52;;;;;;;5.40;2.37;;;13.20;99.90;;;;;;5076551;28;20201;-64
2021/05/17 03:53:19;;;;;;;1.37;0.67;;;13.00;99.90;;;;;;5076425;28;20213;-63
2021/05/17 03:55:46;;;;;;;1.57;1.00;;;13.20;99.90;;;;;;5075553;28;20240;-63
2021/05/17 03:58:13;;;;;;;3.17;0.90;;;13.30;99.90;;;;;;5076253;28;20562;-62
2021/05/17 04:00:39;;;;;;;4.60;1.70;;;13.30;99.90;;;;;;5075635;28;20201;-64
2021/05/17 04:03:14;;;;;;;2.10;1.23;;;13.40;99.90;;;;;;5075440;28;20452;-64
2021/05/17 04:05:51;;;;;;;1.73;0.70;;;13.40;99.90;;;;;;5075750;28;20235;-64
2021/05/17 04:13:47;;;;;;;4.87;2.97;;;13.20;99.90;;;;;;5074583;28;20223;-64
2021/05/17 04:16:13;;;;;;;1.03;0.57;;;13.20;99.90;;;;;;5075587;28;20208;-64
2021/05/17 04:18:39;;;;;;;0.77;0.67;;;13.30;99.90;;;;;;5075544;28;20208;-64
2021/05/17 04:21:05;;;;;;;1.53;0.87;;;13.40;99.90;;;;;;5076173;28;20216;-63
2021/05/17 04:23:32;;;;;;;1.13;0.57;;;13.30;99.90;;;;;;5076680;28;20213;-64
2021/05/17 04:25:58;;;;;;;0.70;0.40;;;13.40;99.90;;;;;;5076339;28;20205;-63
2021/05/17 04:28:24;;;;;;;0.93;0.60;;;13.30;99.90;;;;;;5075552;28;20216;-63
2021/05/17 04:30:52;;;;;;;1.43;0.67;;;13.30;99.90;;;;;;5075876;28;20211;-64
2021/05/17 04:33:18;;;;;;;3.60;1.50;;;13.20;99.90;;;;;;5075742;28;20205;-64
2021/05/17 04:35:44;;;;;;;1.43;0.63;;;13.10;99.90;;;;;;5075198;28;20228;-64
2021/05/17 04:38:10;;;;;;;1.97;0.57;;;13.20;99.90;;;;;;5075550;28;20209;-63
2021/05/17 04:40:36;;;;;;;1.53;0.57;;;13.20;99.90;;;;;;5075619;28;20200;-64
2021/05/17 04:43:03;;;;;;;3.50;1.53;;;13.30;99.90;;;;;;5074878;28;20668;-63
2021/05/17 04:45:30;;;;;;;1.63;0.63;;;13.30;99.90;;;;;;5073763;28;20217;-64
2021/05/17 04:47:57;;;;;;;1.00;0.60;;;13.30;99.90;;;;;;5075146;28;20211;-64
2021/05/17 04:50:23;;;;;;;2.83;0.87;;;13.40;99.90;;;;;;5076196;28;20209;-63
2021/05/17 04:52:50;;;;;;;2.97;1.43;;;13.60;99.90;;;;;;5074857;28;20209;-64
2021/05/17 04:55:16;;;;;;;1.93;0.90;;;13.70;99.90;;;;;;5075226;28;20319;-64
2021/05/17 04:57:42;;;;;;;4.30;1.53;;;13.70;99.90;;;;;;5075373;28;20204;-64
2021/05/17 05:00:11;;;;;;;3.57;2.03;;;13.80;99.90;;;;;;5076656;28;20212;-64
2021/05/17 05:02:38;;;;;;;5.43;2.03;;;13.80;99.90;;;;;;5077983;28;20216;-63
2021/05/17 05:05:07;;;;;;;2.17;1.10;;;14.00;99.90;;;;;;5078005;28;20220;-64
2021/05/17 05:07:34;;;;;;;2.77;1.03;;;14.20;99.90;;;;;;5078283;28;20215;-64
2021/05/17 05:10:00;;;;;;;3.47;0.80;;;14.10;99.90;;;;;;5078550;28;20212;-64
2021/05/17 05:12:26;;;;;;;5.83;3.27;;;14.10;99.90;;;;;;5074178;28;20597;-64
2021/05/17 05:14:52;;;;;;;1.43;0.60;;;14.00;99.90;;;;;;5073223;28;20243;-65
2021/05/17 05:17:18;;;;;;;3.83;0.90;;;14.20;99.90;;;;;;5073582;28;20209;-63
2021/05/17 05:19:45;;;;;;;5.17;3.87;;;14.10;99.90;;;;;;5072814;28;20216;-65
2021/05/17 05:22:12;;;;;;;1.97;0.83;;;14.20;99.90;;;;;;5073737;28;20206;-65
2021/05/17 05:24:39;;;;;;;3.23;0.93;;;14.20;99.90;;;;;;5072950;28;20632;-63
2021/05/17 05:27:15;;;;;;;1.63;0.57;;;14.30;99.90;;;;;;5073118;28;20212;-63
2021/05/17 05:29:53;;;;;;;3.50;0.53;;;14.30;99.90;;;;;;5072415;28;20212;-64
2021/05/17 05:32:26;;;;;;;1.80;0.60;;;14.20;99.90;;;;;;5072558;28;20673;-64
2021/05/17 05:34:52;;;;;;;1.13;0.63;;;14.20;99.90;;;;;;5072421;28;20239;-64
2021/05/17 05:37:19;;;;;;;2.17;0.60;;;14.00;99.90;;;;;;5072714;28;20212;-64
2021/05/17 05:39:46;;;;;;;0.80;0.50;;;14.10;99.90;;;;;;5071914;28;20208;-64
2021/05/17 05:42:12;;;;;;;0.63;0.40;;;14.30;99.90;;;;;;5072018;28;20589;-64
2021/05/17 05:44:47;;;;;;;1.00;0.70;;;14.60;99.90;;;;;;5071883;28;20228;-64
2021/05/17 05:47:16;;;;;;;1.97;0.90;;;15.00;99.90;;;;;;5072041;28;20253;-64
2021/05/17 05:49:43;;;;;;;1.33;0.70;;;15.20;99.90;;;;;;5072209;28;20232;-64
2021/05/17 05:52:09;;;;;;;0.63;0.50;;;15.30;99.90;;;;;;5072294;28;20207;-64
2021/05/17 05:54:36;;;;;;;3.53;0.80;;;15.30;99.70;;;;;;5072950;28;20233;-64
2021/05/17 05:57:03;;;;;;;2.77;0.63;;;15.30;99.30;;;;;;5075953;28;20673;-64
2021/05/17 05:59:30;;;;;;;2.50;0.80;;;15.10;99.20;;;;;;5079239;28;20681;-64
2021/05/17 06:01:56;;;;;;;1.07;0.73;;;15.20;99.40;;;;;;5077785;28;20205;-64
2021/05/17 06:04:22;;;;;;;2.20;0.77;;;15.10;99.10;;;;;;5082627;28;20225;-64
2021/05/17 06:06:48;;;;;;;4.80;0.73;;;14.90;98.80;;;;;;5076793;28;20212;-64
2021/05/17 06:09:15;;;;;;;4.13;0.80;;;14.90;98.70;;;;;;5073906;28;20200;-64
2021/05/17 06:11:42;;;;;;;0.80;0.40;;;15.00;98.80;;;;;;5072404;28;20339;-64
2021/05/17 06:14:10;;;;;;;7.33;0.90;;;14.90;98.00;;;;;;5072258;28;20225;-64
2021/05/17 06:16:37;;;;;;;2.87;0.60;;;14.90;98.00;;;;;;5072164;28;20215;-65
2021/05/17 06:19:04;;;;;;;5.90;0.77;;;15.00;97.70;;;;;;5071936;28;20215;-64
2021/05/17 06:21:31;;;;;;;2.13;0.80;;;15.10;97.70;;;;;;5071780;28;20209;-64
2021/05/17 06:23:58;;;;;;;1.40;0.50;;;15.20;97.40;;;;;;5071633;28;20224;-64
2021/05/17 06:26:25;;;;;;;5.87;0.70;;;15.10;97.50;;;;;;5071821;28;20212;-64
2021/05/17 06:28:53;;;;;;;3.77;0.60;;;15.10;97.50;;;;;;5071535;28;21343;-64
2021/05/17 06:31:21;;;;;;;2.00;0.40;;;14.90;97.80;;;;;;5071781;28;20216;-64
2021/05/17 06:33:47;;;;;;;2.00;0.90;;;14.90;97.60;;;;;;5071383;28;20651;-64
2021/05/17 06:36:15;;;;;;;1.07;0.60;;;14.80;97.70;;;;;;5071980;28;20209;-64
2021/05/17 06:38:42;;;;;;;1.40;0.83;;;14.70;97.80;;;;;;5072034;28;20213;-64
2021/05/17 06:41:08;;;;;;;1.43;0.73;;;14.60;98.10;;;;;;5071933;28;20204;-64
2021/05/17 06:43:35;;;;;;;2.90;1.00;;;14.60;99.00;;;;;;5072417;28;20215;-64
2021/05/17 06:46:03;;;;;;;2.47;0.60;;;14.50;99.90;;;;;;5072250;28;20267;-64
2021/05/17 06:48:30;;;;;;;1.80;0.80;;;14.50;99.90;;;;;;5072205;28;20216;-64
2021/05/17 06:50:57;;;;;;;12.00;7.30;;;14.70;99.90;;;;;;5072039;28;20205;-64
2021/05/17 06:53:24;;;;;;;2.83;0.60;;;14.80;99.90;;;;;;5075287;28;20216;-64
2021/05/17 06:56:00;;;;;;;4.20;0.60;;;14.80;99.90;;;;;;5075950;28;20228;-64
2021/05/17 06:58:33;;;;;;;2.23;0.50;;;14.80;99.90;;;;;;5076447;28;20211;-64
2021/05/17 07:01:00;;;;;;;2.10;0.67;;;14.90;99.90;;;;;;5076023;28;20808;-64
2021/05/17 07:03:27;;;;;;;0.80;0.40;;;14.90;99.80;;;;;;5075865;28;20200;-64
2021/05/17 07:05:55;;;;;;;2.80;0.93;;;14.90;99.90;;;;;;5075864;28;20679;-64
2021/05/17 07:13:51;;;;;;;4.20;1.03;;;15.20;98.70;;;;;;5074687;28;20605;-63
2021/05/17 07:16:17;;;;;;;3.03;0.67;;;15.50;98.60;;;;;;5074800;28;20373;-63
2021/05/17 07:18:44;;;;;;;2.77;1.10;;;15.90;98.20;;;;;;5074027;28;20205;-63
2021/05/17 07:23:54;;;;;;;3.07;0.50;;;16.60;96.70;;;;;;5074231;28;20223;-63
2021/05/17 07:26:22;;;;;;;1.07;0.50;;;16.80;95.70;;;;;;5074637;28;20215;-64
2021/05/17 07:28:50;;;;;;;7.17;0.67;;;16.90;95.50;;;;;;5074174;28;20741;-64
2021/05/17 07:31:17;;;;;;;1.20;0.40;;;16.90;94.40;;;;;;5074232;28;20483;-62
2021/05/17 07:33:44;;;;;;;1.33;0.30;;;16.90;94.20;;;;;;5073792;28;20231;-62
2021/05/17 07:36:12;;;;;;;1.10;0.23;;;16.80;93.40;;;;;;5074529;28;20205;-62
2021/05/17 07:38:38;;;;;;;0.67;0.17;;;16.80;93.70;;;;;;5074255;28;20211;-62
2021/05/17 07:41:04;;;;;;;3.50;1.43;;;16.60;93.80;;;;;;5074006;28;20238;-61
2021/05/17 07:43:30;;;;;;;1.00;0.50;;;16.80;94.10;;;;;;5073483;28;20585;-62
2021/05/17 07:45:57;;;;;;;0.83;0.40;;;16.90;93.40;;;;;;5073830;28;20735;-62
2021/05/17 07:48:24;;;;;;;0.53;0.40;;;16.90;93.10;;;;;;5074094;28;20574;-62
2021/05/17 07:50:51;;;;;;;2.43;0.60;;;17.10;93.20;;;;;;5074310;28;20216;-63
2021/05/17 07:53:17;;;;;;;2.90;0.50;;;17.50;92.20;;;;;;5074054;28;20200;-62
2021/05/17 07:55:44;;;;;;;1.50;0.60;;;18.30;90.90;;;;;;5073661;28;20224;-62
2021/05/17 07:58:10;;;;;;;1.20;0.60;;;19.00;90.50;;;;;;5073457;28;20212;-62
2021/05/17 08:00:37;;;;;;;1.50;0.53;;;19.50;88.30;;;;;;5073632;28;20209;-62
2021/05/17 08:03:03;;;;;;;3.40;0.50;;;19.50;85.90;;;;;;5073126;28;20201;-63
2021/05/17 08:05:31;;;;;;;2.37;0.73;;;19.20;84.50;;;;;;5073400;28;20311;-62
2021/05/17 08:07:59;;;;;;;1.87;0.73;;;18.90;85.30;;;;;;5073264;28;20205;-62
2021/05/17 08:10:25;;;;;;;3.83;1.27;;;18.60;87.00;;;;;;5073516;28;20200;-63
2021/05/17 08:12:51;;;;;;;2.53;0.57;;;18.60;87.60;;;;;;5073142;28;20212;-63
2021/05/17 08:15:18;;;;;;;3.40;0.60;;;18.60;87.90;;;;;;5072951;28;20248;-63
2021/05/17 08:17:44;;;;;;;2.10;0.83;;;18.70;87.70;;;;;;5073438;28;20219;-62
2021/05/17 08:20:11;;;;;;;3.63;0.73;;;18.60;87.30;;;;;;5073123;28;20714;-63
2021/05/17 08:22:37;;;;;;;3.20;0.50;;;18.60;86.00;;;;;;5073206;28;20257;-62
2021/05/17 08:25:06;;;;;;;2.30;0.60;;;18.30;86.30;;;;;;5073277;28;20740;-63
2021/05/17 08:27:32;;;;;;;4.63;0.80;;;18.10;87.30;;;;;;5073477;28;20216;-63
2021/05/17 08:29:58;;;;;;;1.97;0.60;;;17.80;87.70;;;;;;5073716;28;20215;-62
2021/05/17 08:32:24;;;;;;;2.80;0.90;;;17.70;88.50;;;;;;5073554;28;20204;-63
2021/05/17 08:34:50;;;;;;;2.83;0.70;;;17.70;87.00;;;;;;5072833;28;20225;-62
2021/05/17 08:37:17;;;;;;;1.60;0.60;;;17.80;87.30;;;;;;5073150;28;20227;-61
2021/05/17 08:39:43;;;;;;;1.50;0.70;;;18.40;86.90;;;;;;5073153;28;20205;-62
2021/05/17 08:42:12;;;;;;;2.73;0.80;;;18.90;83.30;;;;;;5072805;28;20208;-62
2021/05/17 08:44:38;;;;;;;2.40;0.70;;;19.10;82.50;;;;;;5072803;28;20221;-61
2021/05/17 08:47:04;;;;;;;3.47;0.60;;;19.10;81.80;;;;;;5072800;28;20214;-62
2021/05/17 08:49:30;;;;;;;1.20;0.53;;;19.00;81.80;;;;;;5072570;28;20212;-62
2021/05/17 08:51:56;;;;;;;2.80;0.70;;;19.00;81.90;;;;;;5072487;28;20204;-62
2021/05/17 08:54:23;;;;;;;1.27;0.50;;;19.40;81.50;;;;;;5072087;28;20237;-60
2021/05/17 08:56:49;;;;;;;2.33;0.63;;;20.10;79.40;;;;;;5072712;28;20213;-61
2021/05/17 08:59:19;;;;;;;4.27;0.90;;;20.50;76.20;;;;;;5072547;28;20212;-61
2021/05/17 09:01:46;;;;;;;3.75;0.70;;;20.60;76.60;;;;;;5072463;28;20205;-61
2021/05/17 09:04:15;;;;;;;2.45;0.60;;;20.70;75.90;;;;;;5072447;28;20228;-61
2021/05/17 09:06:43;;;;;;;2.35;0.65;;;20.90;74.40;;;;;;5072508;28;20216;-62
2021/05/17 09:09:24;;;;;;;2.15;0.60;;;21.00;71.90;;;;;;5072252;28;20205;-61
2021/05/17 09:11:52;;;;;;;4.10;1.98;;;21.10;72.40;;;;;;5072337;28;20205;-61
2021/05/17 09:14:20;;;;;;;2.08;0.60;;;21.60;71.00;;;;;;5071000;28;20221;-61
2021/05/17 09:16:49;;;;;;;0.80;0.40;;;21.60;69.30;;;;;;5071936;28;20668;-62
2021/05/17 09:19:16;;;;;;;1.63;0.70;;;21.60;68.80;;;;;;5072275;28;20205;-61
2021/05/17 09:22:07;;;;;;;3.03;0.55;;;21.30;68.70;;;;;;5071821;28;20224;-61
2021/05/17 09:24:35;;;;;;;4.53;1.00;;;21.00;71.60;;;;;;5071831;28;20278;-61
2021/05/17 09:27:02;;;;;;;1.10;0.50;;;20.80;71.90;;;;;;5072006;28;20219;-61
2021/05/17 09:29:35;;;;;;;2.13;0.63;;;20.60;71.40;;;;;;5071766;28;20201;-61
2021/05/17 09:32:20;;;;;;;2.22;0.50;;;20.70;70.80;;;;;;5071763;28;20209;-61
2021/05/17 09:34:48;;;;;;;1.55;0.55;;;20.60;68.90;;;;;;5093782;22;20812;-64
2021/05/17 09:37:15;;;;;;;0.98;0.30;;;20.50;69.20;;;;;;5071958;28;20584;-65
2021/05/17 09:39:49;;;;;;;7.45;1.98;;;20.30;69.70;;;;;;5071218;28;20672;-65
2021/05/17 09:42:15;;;;;;;4.18;1.35;;;20.40;78.90;;;;;;5071647;28;20243;-66
2021/05/17 09:44:46;;;;;;;2.17;0.63;;;20.30;86.80;;;;;;5071281;28;20221;-65
2021/05/17 09:47:14;;;;;;;2.95;0.50;;;20.40;84.10;;;;;;5071749;28;20261;-65
2021/05/17 09:49:45;;;;;;;1.58;0.30;;;20.70;86.20;;;;;;5071944;28;20212;-66
2021/05/17 09:52:15;;;;;;;1.75;0.30;;;21.00;83.20;;;;;;5071496;28;20239;-65
2021/05/17 09:54:52;;;;;;;3.65;0.65;;;21.20;82.50;;;;;;5070898;28;20714;-65
2021/05/17 09:57:20;;;;;;;1.10;0.50;;;21.20;83.80;;;;;;5071643;28;20208;-66
2021/05/17 09:59:49;;;;;;;1.30;0.70;;;21.10;83.90;;;;;;5071300;28;20205;-65
2021/05/17 10:02:33;;;;;;;5.03;0.95;;;21.10;81.60;;;;;;5071413;28;20561;-64
2021/05/17 10:05:15;;;;;;;1.65;0.82;;;21.30;83.60;;;;;;5071783;28;20227;-65
2021/05/17 10:07:42;;;;;;;2.75;0.50;;;21.50;84.10;;;;;;5071265;28;20262;-65
2021/05/17 10:10:10;;;;;;;6.78;0.70;;;21.70;82.50;;;;;;5071620;28;20201;-64
2021/05/17 10:12:36;;;;;;;2.75;0.75;;;22.20;79.90;;;;;;5071089;28;20228;-64
2021/05/17 10:15:07;;;;;;;2.85;0.68;;;22.50;81.50;;;;;;5070960;28;20704;-64
2021/05/17 10:17:34;;;;;;;2.30;1.83;;;22.70;75.40;;;;;;5071428;28;20250;-63
2021/05/17 10:20:01;;;;;;;1.45;0.57;;;22.70;73.80;;;;;;5071059;28;20208;-64
2021/05/17 10:22:29;;;;;;;0.52;0.50;;;22.80;73.40;;;;;;5071539;28;20242;-64
2021/05/17 10:24:58;;;;;;;4.22;0.80;;;23.10;72.60;;;;;;5071539;28;20224;-65
2021/05/17 10:27:27;;;;;;;2.13;0.93;;;23.40;71.10;;;;;;5071350;28;20205;-64
2021/05/17 10:29:58;;;;;;;2.45;0.35;;;23.20;69.10;;;;;;5071297;28;20228;-65
2021/05/17 10:32:41;;;;;;;2.17;0.68;;;23.10;66.10;;;;;;5071201;28;20212;-64
2021/05/17 10:35:10;;;;;;;0.93;0.55;;;22.80;66.40;;;;;;5070578;28;20239;-64
2021/05/17 10:37:38;;;;;;;1.55;0.95;;;22.30;67.70;;;;;;5070932;28;20201;-64
2021/05/17 10:40:05;;;;;;;0.55;0.22;;;21.90;69.60;;;;;;5071178;28;20205;-64
2021/05/17 10:42:44;;;;;;;1.65;0.68;;;21.90;70.00;;;;;;5071150;28;20209;-65
2021/05/17 10:48:25;;;;;;;1.83;0.38;;;22.40;66.90;;;;;;5070702;28;20318;-64
2021/05/17 10:51:08;;;;;;;0.90;0.40;;;22.50;66.10;;;;;;5071510;28;20200;-65
2021/05/17 10:53:51;;;;;;;1.35;0.50;;;22.40;65.40;;;;;;5071041;28;20209;-66
2021/05/17 10:56:19;;;;;;;0.70;0.38;;;22.20;64.40;;;;;;5071008;28;20221;-64
2021/05/17 11:01:53;;;;;;;2.90;0.40;;;22.20;65.80;;;;;;5070943;28;20188;-64
2021/05/17 11:04:24;;;;;;;1.48;0.50;;;22.30;65.90;;;;;;5070743;28;20586;-64
2021/05/17 11:07:24;;;;;;;1.38;0.50;;;22.40;66.00;;;;;;5070946;28;20205;-64
2021/05/17 11:10:00;;;;;;;3.05;0.85;;;21.70;75.10;;;;;;5071167;28;20200;-65
2021/05/17 11:13:12;;;;;;;18.65;9.75;;;21.20;75.90;;;;;;5071563;28;20589;-65
2021/05/17 11:15:54;;;;;;;1.63;0.50;;;21.20;75.80;;;;;;5071158;28;20233;-66
2021/05/17 11:18:23;;;;;;;0.80;0.70;;;21.50;74.00;;;;;;5070807;28;20676;-65
2021/05/17 11:20:54;;;;;;;3.03;1.48;;;21.40;73.80;;;;;;5071058;28;20209;-65
2021/05/17 11:23:54;;;;;;;3.10;0.60;;;21.50;74.90;;;;;;5070920;28;20209;-65
2021/05/17 11:26:23;;;;;;;2.30;0.47;;;21.90;71.30;;;;;;5070661;28;20227;-64
2021/05/17 11:29:12;;;;;;;0.82;0.35;;;22.20;71.10;;;;;;5071429;28;20212;-64
2021/05/17 11:31:46;;;;;;;1.40;0.50;;;22.10;71.50;;;;;;5071311;28;20205;-64
2021/05/17 11:34:18;;;;;;;4.18;0.93;;;21.10;74.00;;;;;;5070739;28;20696;-64
2021/05/17 11:36:47;;;;;;;6.25;1.30;;;20.10;84.80;;;;;;5071312;28;20205;-65
2021/05/17 11:39:19;;;;;;;5.20;1.77;;;18.90;89.50;;;;;;5073939;28;20664;-65
2021/05/17 11:41:47;;;;;;;4.03;1.10;;;18.10;91.90;;;;;;5074445;28;20230;-65
2021/05/17 11:44:15;;;;;;;3.97;1.13;;;17.50;92.50;;;;;;5074021;28;20224;-66
2021/05/17 11:46:46;;;;;;;3.70;0.87;;;17.20;92.80;;;;;;5074047;28;20205;-65
2021/05/17 11:49:14;;;;;;;1.97;0.57;;;16.90;93.60;;;;;;5073606;28;20263;-65
2021/05/17 11:51:41;;;;;;;2.60;1.00;;;16.80;95.30;;;;;;5075042;28;20213;-65
2021/05/17 11:54:09;;;;;;;2.43;0.70;;;16.70;95.60;;;;;;5073999;28;20225;-65
2021/05/17 11:56:37;;;;;;;3.17;0.87;;;16.50;97.40;;;;;;5074029;28;20676;-65
2021/05/17 11:59:05;;;;;;;5.90;1.10;;;16.30;98.40;;;;;;5074350;28;20337;-65
2021/05/17 12:01:32;;;;;;;2.10;0.70;;;16.00;99.70;;;;;;5074376;28;20223;-64
2021/05/17 12:04:13;;;;;;;2.83;0.50;;;15.90;99.90;;;;;;5073544;28;20254;-65
2021/05/17 12:06:40;;;;;;;2.60;0.90;;;15.90;99.90;;;;;;5074587;28;20258;-65
2021/05/17 12:09:06;;;;;;;1.50;0.60;;;16.30;99.90;;;;;;5075861;28;20208;-65
2021/05/17 12:11:33;;;;;;;3.93;1.00;;;16.90;99.90;;;;;;5076375;28;20216;-65
2021/05/17 12:14:07;;;;;;;1.97;0.50;;;17.30;99.60;;;;;;5074482;28;20201;-65
2021/05/17 12:16:33;;;;;;;1.87;0.60;;;17.60;99.90;;;;;;5073760;28;20200;-65
2021/05/17 12:19:00;;;;;;;1.20;0.60;;;17.70;99.90;;;;;;5073268;28;20691;-64
2021/05/17 12:21:31;;;;;;;2.80;0.87;;;17.70;99.50;;;;;;5074031;28;20668;-65
2021/05/17 12:23:58;;;;;;;8.87;5.60;;;17.70;99.90;;;;;;5074260;28;20213;-65
2021/05/17 12:26:24;;;;;;;2.10;0.80;;;17.70;99.90;;;;;;5074142;28;20203;-65
2021/05/17 12:28:58;;;;;;;2.87;0.73;;;17.80;99.90;;;;;;5073583;28;20622;-65
2021/05/17 12:31:25;;;;;;;2.47;0.60;;;18.00;99.90;;;;;;5073718;28;20606;-65
2021/05/17 12:33:51;;;;;;;2.97;0.63;;;18.10;99.90;;;;;;5073242;28;20244;-65
2021/05/17 12:36:17;;;;;;;2.33;0.87;;;18.00;99.90;;;;;;5073073;28;20232;-64
2021/05/17 12:38:46;;;;;;;3.27;1.20;;;18.00;99.90;;;;;;5073255;28;20672;-64
2021/05/17 12:41:34;;;;;;;2.13;0.53;;;18.10;99.90;;;;;;5073292;28;20278;-64
2021/05/17 12:44:03;;;;;;;6.23;2.73;;;18.30;99.90;;;;;;5073597;28;20208;-65
2021/05/17 12:46:30;;;;;;;5.50;0.73;;;18.50;99.90;;;;;;5074101;28;20666;-64
2021/05/17 12:48:57;;;;;;;3.50;0.83;;;18.90;99.90;;;;;;5072563;28;20699;-64
2021/05/17 12:51:26;;;;;;;1.53;0.90;;;19.10;99.70;;;;;;5072878;28;20201;-65
2021/05/17 12:53:55;;;;;;;1.90;0.80;;;19.30;99.70;;;;;;5072736;28;20471;-65
2021/05/17 12:56:26;;;;;;;1.47;0.50;;;19.60;97.90;;;;;;5072991;28;20680;-65
2021/05/17 12:58:53;;;;;;;3.77;1.97;;;19.70;95.60;;;;;;5072887;28;20200;-63
2021/05/17 13:01:21;;;;;;;2.07;0.50;;;19.80;92.40;;;;;;5072436;28;20205;-65
2021/05/17 13:03:51;;;;;;;0.97;0.30;;;19.90;92.50;;;;;;5073029;28;20216;-65
2021/05/17 13:06:20;;;;;;;0.70;0.30;;;19.60;90.30;;;;;;5073256;28;20205;-64
2021/05/17 13:08:50;;;;;;;2.47;0.43;;;19.70;89.10;;;;;;5072770;28;20205;-64
2021/05/17 13:11:31;;;;;;;2.85;0.45;;;19.80;89.90;;;;;;5073014;28;20209;-65
2021/05/17 13:14:00;;;;;;;0.40;0.30;;;20.00;89.20;;;;;;5073295;28;20657;-65
2021/05/17 13:16:31;;;;;;;1.00;0.23;;;20.10;86.20;;;;;;5073055;28;20227;-65